sensor_id;sensor_type;location;lat;lon;timestamp;P1;durP1;ratioP1;P2;durP2;ratioP2
36205;SDS011;22242;48.796;9.930;2023-02-28T00:00:25;4.88;;;2.60;;
36205;SDS011;22242;48.796;9.930;2023-02-28T00:02:52;5.40;;;2.75;;
36205;SDS011;22242;48.796;9.930;2023-02-28T00:05:20;4.32;;;2.47;;
36205;SDS011;22242;48.796;9.930;2023-02-28T00:07:49;7.68;;;2.50;;
36205;SDS011;22242;48.796;9.930;2023-02-28T00:10:17;5.50;;;2.42;;
36205;SDS011;22242;48.796;9.930;2023-02-28T00:12:47;5.57;;;2.60;;
36205;SDS011;22242;48.796;9.930;2023-02-28T00:15:15;6.70;;;2.70;;
36205;SDS011;22242;48.796;9.930;2023-02-28T00:17:43;4.53;;;2.88;;
36205;SDS011;22242;48.796;9.930;2023-02-28T00:20:10;4.65;;;2.40;;
36205;SDS011;22242;48.796;9.930;2023-02-28T00:22:39;6.00;;;2.90;;
36205;SDS011;22242;48.796;9.930;2023-02-28T00:25:12;5.45;;;2.80;;
36205;SDS011;22242;48.796;9.930;2023-02-28T00:27:41;5.67;;;2.90;;
36205;SDS011;22242;48.796;9.930;2023-02-28T00:30:11;4.68;;;3.45;;
36205;SDS011;22242;48.796;9.930;2023-02-28T00:32:39;3.72;;;2.55;;
36205;SDS011;22242;48.796;9.930;2023-02-28T00:35:06;2.78;;;2.50;;
36205;SDS011;22242;48.796;9.930;2023-02-28T00:37:35;4.93;;;2.75;;
36205;SDS011;22242;48.796;9.930;2023-02-28T00:40:05;7.18;;;3.10;;
36205;SDS011;22242;48.796;9.930;2023-02-28T00:42:33;6.13;;;3.13;;
36205;SDS011;22242;48.796;9.930;2023-02-28T00:45:01;4.97;;;2.80;;
36205;SDS011;22242;48.796;9.930;2023-02-28T00:47:31;5.40;;;3.13;;
36205;SDS011;22242;48.796;9.930;2023-02-28T00:49:58;5.82;;;2.88;;
36205;SDS011;22242;48.796;9.930;2023-02-28T00:52:27;9.73;;;3.40;;
36205;SDS011;22242;48.796;9.930;2023-02-28T00:54:54;5.28;;;3.20;;
36205;SDS011;22242;48.796;9.930;2023-02-28T00:57:21;6.35;;;2.85;;
36205;SDS011;22242;48.796;9.930;2023-02-28T00:59:48;5.53;;;3.20;;
36205;SDS011;22242;48.796;9.930;2023-02-28T01:02:15;8.02;;;3.05;;
36205;SDS011;22242;48.796;9.930;2023-02-28T01:04:44;5.43;;;3.40;;
36205;SDS011;22242;48.796;9.930;2023-02-28T01:07:12;5.28;;;3.25;;
36205;SDS011;22242;48.796;9.930;2023-02-28T01:09:40;5.75;;;3.88;;
36205;SDS011;22242;48.796;9.930;2023-02-28T01:12:07;4.95;;;3.50;;
36205;SDS011;22242;48.796;9.930;2023-02-28T01:14:34;8.70;;;4.07;;
36205;SDS011;22242;48.796;9.930;2023-02-28T01:17:02;5.60;;;3.80;;
36205;SDS011;22242;48.796;9.930;2023-02-28T01:19:30;6.72;;;3.45;;
36205;SDS011;22242;48.796;9.930;2023-02-28T01:22:01;6.43;;;3.72;;
36205;SDS011;22242;48.796;9.930;2023-02-28T01:24:29;6.32;;;3.70;;
36205;SDS011;22242;48.796;9.930;2023-02-28T01:26:56;5.18;;;3.53;;
36205;SDS011;22242;48.796;9.930;2023-02-28T01:29:23;7.68;;;3.80;;
36205;SDS011;22242;48.796;9.930;2023-02-28T01:31:51;9.43;;;4.00;;
36205;SDS011;22242;48.796;9.930;2023-02-28T01:34:19;7.28;;;3.95;;
36205;SDS011;22242;48.796;9.930;2023-02-28T01:36:46;6.60;;;3.60;;
36205;SDS011;22242;48.796;9.930;2023-02-28T01:39:14;6.22;;;3.70;;
36205;SDS011;22242;48.796;9.930;2023-02-28T01:41:41;7.20;;;4.40;;
36205;SDS011;22242;48.796;9.930;2023-02-28T01:47:09;5.38;;;3.50;;
36205;SDS011;22242;48.796;9.930;2023-02-28T01:49:37;6.30;;;3.95;;
36205;SDS011;22242;48.796;9.930;2023-02-28T01:52:05;5.55;;;3.58;;
36205;SDS011;22242;48.796;9.930;2023-02-28T01:54:35;7.95;;;4.30;;
36205;SDS011;22242;48.796;9.930;2023-02-28T01:57:03;5.97;;;4.20;;
36205;SDS011;22242;48.796;9.930;2023-02-28T01:59:33;6.63;;;3.80;;
36205;SDS011;22242;48.796;9.930;2023-02-28T02:02:04;5.38;;;3.45;;
36205;SDS011;22242;48.796;9.930;2023-02-28T02:04:32;7.25;;;4.03;;
36205;SDS011;22242;48.796;9.930;2023-02-28T02:07:05;7.28;;;3.92;;
36205;SDS011;22242;48.796;9.930;2023-02-28T02:09:34;5.95;;;3.78;;
36205;SDS011;22242;48.796;9.930;2023-02-28T02:12:02;4.82;;;4.00;;
36205;SDS011;22242;48.796;9.930;2023-02-28T02:14:43;6.55;;;3.72;;
36205;SDS011;22242;48.796;9.930;2023-02-28T02:17:24;7.10;;;3.78;;
36205;SDS011;22242;48.796;9.930;2023-02-28T02:23:14;8.63;;;4.03;;
36205;SDS011;22242;48.796;9.930;2023-02-28T02:29:15;6.53;;;3.80;;
36205;SDS011;22242;48.796;9.930;2023-02-28T02:32:02;6.38;;;4.40;;
36205;SDS011;22242;48.796;9.930;2023-02-28T02:35:07;7.03;;;4.07;;
36205;SDS011;22242;48.796;9.930;2023-02-28T02:37:41;8.63;;;4.55;;
36205;SDS011;22242;48.796;9.930;2023-02-28T02:40:15;7.90;;;4.25;;
36205;SDS011;22242;48.796;9.930;2023-02-28T02:42:49;6.78;;;4.05;;
36205;SDS011;22242;48.796;9.930;2023-02-28T02:45:19;5.78;;;3.80;;
36205;SDS011;22242;48.796;9.930;2023-02-28T02:47:50;7.20;;;4.43;;
36205;SDS011;22242;48.796;9.930;2023-02-28T02:50:19;8.38;;;4.03;;
36205;SDS011;22242;48.796;9.930;2023-02-28T02:52:51;5.95;;;4.00;;
36205;SDS011;22242;48.796;9.930;2023-02-28T02:55:22;7.88;;;4.40;;
36205;SDS011;22242;48.796;9.930;2023-02-28T02:57:51;8.02;;;4.32;;
36205;SDS011;22242;48.796;9.930;2023-02-28T03:00:22;8.60;;;4.57;;
36205;SDS011;22242;48.796;9.930;2023-02-28T03:02:53;10.73;;;4.95;;
36205;SDS011;22242;48.796;9.930;2023-02-28T03:05:23;7.68;;;4.47;;
36205;SDS011;22242;48.796;9.930;2023-02-28T03:07:54;8.38;;;4.60;;
36205;SDS011;22242;48.796;9.930;2023-02-28T03:10:33;5.53;;;4.15;;
36205;SDS011;22242;48.796;9.930;2023-02-28T03:13:09;7.75;;;4.85;;
36205;SDS011;22242;48.796;9.930;2023-02-28T03:18:15;7.57;;;4.35;;
36205;SDS011;22242;48.796;9.930;2023-02-28T03:20:50;8.25;;;5.28;;
36205;SDS011;22242;48.796;9.930;2023-02-28T03:23:29;8.70;;;5.35;;
36205;SDS011;22242;48.796;9.930;2023-02-28T03:26:04;9.38;;;5.07;;
36205;SDS011;22242;48.796;9.930;2023-02-28T03:28:40;7.55;;;4.70;;
36205;SDS011;22242;48.796;9.930;2023-02-28T03:31:14;7.10;;;4.38;;
36205;SDS011;22242;48.796;9.930;2023-02-28T03:33:46;11.02;;;5.00;;
36205;SDS011;22242;48.796;9.930;2023-02-28T03:36:22;7.72;;;4.75;;
36205;SDS011;22242;48.796;9.930;2023-02-28T03:38:54;7.70;;;4.80;;
36205;SDS011;22242;48.796;9.930;2023-02-28T03:41:29;8.95;;;5.15;;
36205;SDS011;22242;48.796;9.930;2023-02-28T03:44:03;7.97;;;5.03;;
36205;SDS011;22242;48.796;9.930;2023-02-28T03:46:34;9.35;;;5.13;;
36205;SDS011;22242;48.796;9.930;2023-02-28T03:49:04;8.05;;;4.82;;
36205;SDS011;22242;48.796;9.930;2023-02-28T03:51:39;8.35;;;5.18;;
36205;SDS011;22242;48.796;9.930;2023-02-28T03:54:09;9.63;;;5.40;;
36205;SDS011;22242;48.796;9.930;2023-02-28T03:56:40;9.52;;;5.22;;
36205;SDS011;22242;48.796;9.930;2023-02-28T03:59:14;8.93;;;5.22;;
36205;SDS011;22242;48.796;9.930;2023-02-28T04:01:45;9.52;;;5.55;;
36205;SDS011;22242;48.796;9.930;2023-02-28T04:04:15;8.60;;;6.22;;
36205;SDS011;22242;48.796;9.930;2023-02-28T04:06:44;8.70;;;5.72;;
36205;SDS011;22242;48.796;9.930;2023-02-28T04:09:12;12.00;;;6.22;;
36205;SDS011;22242;48.796;9.930;2023-02-28T04:11:41;9.93;;;5.85;;
36205;SDS011;22242;48.796;9.930;2023-02-28T04:14:10;8.18;;;5.30;;
36205;SDS011;22242;48.796;9.930;2023-02-28T04:16:38;8.43;;;5.78;;
36205;SDS011;22242;48.796;9.930;2023-02-28T04:19:07;10.35;;;5.80;;
36205;SDS011;22242;48.796;9.930;2023-02-28T04:21:35;9.82;;;5.75;;
36205;SDS011;22242;48.796;9.930;2023-02-28T04:24:07;10.60;;;6.15;;
36205;SDS011;22242;48.796;9.930;2023-02-28T04:26:40;8.73;;;5.90;;
36205;SDS011;22242;48.796;9.930;2023-02-28T04:29:09;8.07;;;5.97;;
36205;SDS011;22242;48.796;9.930;2023-02-28T04:31:37;12.02;;;6.15;;
36205;SDS011;22242;48.796;9.930;2023-02-28T04:34:05;11.93;;;5.95;;
36205;SDS011;22242;48.796;9.930;2023-02-28T04:36:32;9.45;;;6.13;;
36205;SDS011;22242;48.796;9.930;2023-02-28T04:38:59;10.20;;;6.40;;
36205;SDS011;22242;48.796;9.930;2023-02-28T04:41:27;10.25;;;6.20;;
36205;SDS011;22242;48.796;9.930;2023-02-28T04:43:54;9.60;;;5.90;;
36205;SDS011;22242;48.796;9.930;2023-02-28T04:46:22;13.48;;;6.55;;
36205;SDS011;22242;48.796;9.930;2023-02-28T04:48:50;10.52;;;6.85;;
36205;SDS011;22242;48.796;9.930;2023-02-28T04:51:17;17.85;;;7.90;;
36205;SDS011;22242;48.796;9.930;2023-02-28T04:53:45;10.65;;;6.60;;
36205;SDS011;22242;48.796;9.930;2023-02-28T04:56:14;10.55;;;7.15;;
36205;SDS011;22242;48.796;9.930;2023-02-28T04:58:43;12.25;;;6.95;;
36205;SDS011;22242;48.796;9.930;2023-02-28T05:01:21;10.30;;;6.82;;
36205;SDS011;22242;48.796;9.930;2023-02-28T05:03:50;12.63;;;7.00;;
36205;SDS011;22242;48.796;9.930;2023-02-28T05:06:18;12.00;;;7.53;;
36205;SDS011;22242;48.796;9.930;2023-02-28T05:08:46;15.05;;;7.47;;
36205;SDS011;22242;48.796;9.930;2023-02-28T05:11:15;10.73;;;7.40;;
36205;SDS011;22242;48.796;9.930;2023-02-28T05:13:45;11.15;;;7.10;;
36205;SDS011;22242;48.796;9.930;2023-02-28T05:16:13;12.52;;;7.22;;
36205;SDS011;22242;48.796;9.930;2023-02-28T05:18:40;15.85;;;7.35;;
36205;SDS011;22242;48.796;9.930;2023-02-28T05:21:15;12.10;;;6.65;;
36205;SDS011;22242;48.796;9.930;2023-02-28T05:23:50;10.38;;;6.80;;
36205;SDS011;22242;48.796;9.930;2023-02-28T05:26:17;14.73;;;6.95;;
36205;SDS011;22242;48.796;9.930;2023-02-28T05:28:45;10.82;;;7.05;;
36205;SDS011;22242;48.796;9.930;2023-02-28T05:31:12;16.42;;;8.77;;
36205;SDS011;22242;48.796;9.930;2023-02-28T05:33:40;17.73;;;8.20;;
36205;SDS011;22242;48.796;9.930;2023-02-28T05:36:08;13.75;;;8.48;;
36205;SDS011;22242;48.796;9.930;2023-02-28T05:38:35;14.20;;;7.80;;
36205;SDS011;22242;48.796;9.930;2023-02-28T05:41:04;13.50;;;8.15;;
36205;SDS011;22242;48.796;9.930;2023-02-28T05:43:33;16.90;;;8.18;;
36205;SDS011;22242;48.796;9.930;2023-02-28T05:46:03;14.88;;;8.30;;
36205;SDS011;22242;48.796;9.930;2023-02-28T05:48:31;14.77;;;7.88;;
36205;SDS011;22242;48.796;9.930;2023-02-28T05:50:58;12.48;;;7.60;;
36205;SDS011;22242;48.796;9.930;2023-02-28T05:53:25;15.45;;;7.97;;
36205;SDS011;22242;48.796;9.930;2023-02-28T05:55:53;13.95;;;8.60;;
36205;SDS011;22242;48.796;9.930;2023-02-28T05:58:20;15.85;;;8.50;;
36205;SDS011;22242;48.796;9.930;2023-02-28T06:00:47;15.10;;;8.73;;
36205;SDS011;22242;48.796;9.930;2023-02-28T06:03:16;14.45;;;8.77;;
36205;SDS011;22242;48.796;9.930;2023-02-28T06:05:43;14.48;;;7.20;;
36205;SDS011;22242;48.796;9.930;2023-02-28T06:08:10;14.00;;;8.50;;
36205;SDS011;22242;48.796;9.930;2023-02-28T06:10:37;12.73;;;7.35;;
36205;SDS011;22242;48.796;9.930;2023-02-28T06:13:04;14.50;;;8.30;;
36205;SDS011;22242;48.796;9.930;2023-02-28T06:15:32;11.05;;;7.63;;
36205;SDS011;22242;48.796;9.930;2023-02-28T06:17:59;14.98;;;8.73;;
36205;SDS011;22242;48.796;9.930;2023-02-28T06:20:28;17.85;;;7.70;;
36205;SDS011;22242;48.796;9.930;2023-02-28T06:22:55;17.05;;;8.18;;
36205;SDS011;22242;48.796;9.930;2023-02-28T06:25:24;13.15;;;8.18;;
36205;SDS011;22242;48.796;9.930;2023-02-28T06:27:51;13.07;;;8.10;;
36205;SDS011;22242;48.796;9.930;2023-02-28T06:30:18;15.95;;;9.25;;
36205;SDS011;22242;48.796;9.930;2023-02-28T06:32:52;18.77;;;9.40;;
36205;SDS011;22242;48.796;9.930;2023-02-28T06:35:19;16.23;;;8.13;;
36205;SDS011;22242;48.796;9.930;2023-02-28T06:37:48;13.82;;;8.43;;
36205;SDS011;22242;48.796;9.930;2023-02-28T06:40:15;12.18;;;7.70;;
36205;SDS011;22242;48.796;9.930;2023-02-28T06:42:42;16.90;;;8.30;;
36205;SDS011;22242;48.796;9.930;2023-02-28T06:45:10;16.77;;;8.63;;
36205;SDS011;22242;48.796;9.930;2023-02-28T06:47:38;15.45;;;8.20;;
36205;SDS011;22242;48.796;9.930;2023-02-28T06:50:07;17.40;;;9.52;;
36205;SDS011;22242;48.796;9.930;2023-02-28T06:52:36;15.52;;;8.35;;
36205;SDS011;22242;48.796;9.930;2023-02-28T06:55:05;15.82;;;8.60;;
36205;SDS011;22242;48.796;9.930;2023-02-28T06:57:34;13.18;;;8.05;;
36205;SDS011;22242;48.796;9.930;2023-02-28T07:00:03;16.67;;;8.45;;
36205;SDS011;22242;48.796;9.930;2023-02-28T07:02:32;17.23;;;8.88;;
36205;SDS011;22242;48.796;9.930;2023-02-28T07:05:00;14.80;;;8.45;;
36205;SDS011;22242;48.796;9.930;2023-02-28T07:07:27;15.13;;;8.73;;
36205;SDS011;22242;48.796;9.930;2023-02-28T07:09:54;12.20;;;7.90;;
36205;SDS011;22242;48.796;9.930;2023-02-28T07:12:23;17.08;;;8.43;;
36205;SDS011;22242;48.796;9.930;2023-02-28T07:14:50;14.40;;;8.45;;
36205;SDS011;22242;48.796;9.930;2023-02-28T07:17:17;14.40;;;8.05;;
36205;SDS011;22242;48.796;9.930;2023-02-28T07:19:44;14.45;;;8.80;;
36205;SDS011;22242;48.796;9.930;2023-02-28T07:22:11;14.57;;;8.27;;
36205;SDS011;22242;48.796;9.930;2023-02-28T07:24:38;15.02;;;8.55;;
36205;SDS011;22242;48.796;9.930;2023-02-28T07:27:05;12.65;;;7.80;;
36205;SDS011;22242;48.796;9.930;2023-02-28T07:29:34;13.52;;;7.93;;
36205;SDS011;22242;48.796;9.930;2023-02-28T07:32:01;13.52;;;7.72;;
36205;SDS011;22242;48.796;9.930;2023-02-28T07:34:29;14.30;;;8.07;;
36205;SDS011;22242;48.796;9.930;2023-02-28T07:36:56;14.60;;;8.00;;
36205;SDS011;22242;48.796;9.930;2023-02-28T07:39:23;13.93;;;8.45;;
36205;SDS011;22242;48.796;9.930;2023-02-28T07:41:50;15.73;;;8.55;;
36205;SDS011;22242;48.796;9.930;2023-02-28T07:44:18;14.15;;;8.15;;
36205;SDS011;22242;48.796;9.930;2023-02-28T07:46:47;14.82;;;9.15;;
36205;SDS011;22242;48.796;9.930;2023-02-28T07:49:14;13.07;;;8.00;;
36205;SDS011;22242;48.796;9.930;2023-02-28T07:51:41;15.65;;;8.68;;
36205;SDS011;22242;48.796;9.930;2023-02-28T07:54:08;12.82;;;7.82;;
36205;SDS011;22242;48.796;9.930;2023-02-28T07:56:36;13.38;;;7.88;;
36205;SDS011;22242;48.796;9.930;2023-02-28T07:59:03;14.07;;;8.95;;
36205;SDS011;22242;48.796;9.930;2023-02-28T08:01:30;18.73;;;10.30;;
36205;SDS011;22242;48.796;9.930;2023-02-28T08:03:59;14.32;;;8.88;;
36205;SDS011;22242;48.796;9.930;2023-02-28T08:06:26;13.32;;;8.35;;
36205;SDS011;22242;48.796;9.930;2023-02-28T08:08:53;14.57;;;8.73;;
36205;SDS011;22242;48.796;9.930;2023-02-28T08:11:21;17.45;;;9.55;;
36205;SDS011;22242;48.796;9.930;2023-02-28T08:13:48;15.65;;;9.52;;
36205;SDS011;22242;48.796;9.930;2023-02-28T08:16:16;15.70;;;8.95;;
36205;SDS011;22242;48.796;9.930;2023-02-28T08:18:47;14.75;;;8.73;;
36205;SDS011;22242;48.796;9.930;2023-02-28T08:21:16;13.38;;;8.32;;
36205;SDS011;22242;48.796;9.930;2023-02-28T08:23:45;16.25;;;9.80;;
36205;SDS011;22242;48.796;9.930;2023-02-28T08:26:13;12.73;;;8.40;;
36205;SDS011;22242;48.796;9.930;2023-02-28T08:28:40;12.43;;;8.20;;
36205;SDS011;22242;48.796;9.930;2023-02-28T08:31:07;14.50;;;8.60;;
36205;SDS011;22242;48.796;9.930;2023-02-28T08:33:35;15.43;;;9.13;;
36205;SDS011;22242;48.796;9.930;2023-02-28T08:36:04;13.52;;;8.27;;
36205;SDS011;22242;48.796;9.930;2023-02-28T08:38:33;14.45;;;8.48;;
36205;SDS011;22242;48.796;9.930;2023-02-28T08:41:02;12.65;;;8.48;;
36205;SDS011;22242;48.796;9.930;2023-02-28T08:43:32;17.13;;;9.02;;
36205;SDS011;22242;48.796;9.930;2023-02-28T08:45:59;15.05;;;7.70;;
36205;SDS011;22242;48.796;9.930;2023-02-28T08:48:27;12.77;;;7.65;;
36205;SDS011;22242;48.796;9.930;2023-02-28T08:50:55;14.35;;;8.98;;
36205;SDS011;22242;48.796;9.930;2023-02-28T08:53:23;14.70;;;8.25;;
36205;SDS011;22242;48.796;9.930;2023-02-28T08:55:59;16.80;;;8.02;;
36205;SDS011;22242;48.796;9.930;2023-02-28T08:58:27;13.25;;;8.05;;
36205;SDS011;22242;48.796;9.930;2023-02-28T09:00:55;14.75;;;8.07;;
36205;SDS011;22242;48.796;9.930;2023-02-28T09:03:22;12.82;;;7.80;;
36205;SDS011;22242;48.796;9.930;2023-02-28T09:05:53;13.05;;;8.30;;
36205;SDS011;22242;48.796;9.930;2023-02-28T09:08:21;12.75;;;8.73;;
36205;SDS011;22242;48.796;9.930;2023-02-28T09:10:48;12.80;;;7.82;;
36205;SDS011;22242;48.796;9.930;2023-02-28T09:13:17;16.05;;;9.73;;
36205;SDS011;22242;48.796;9.930;2023-02-28T09:15:45;13.27;;;8.50;;
36205;SDS011;22242;48.796;9.930;2023-02-28T09:18:12;16.08;;;8.77;;
36205;SDS011;22242;48.796;9.930;2023-02-28T09:20:39;13.55;;;7.80;;
36205;SDS011;22242;48.796;9.930;2023-02-28T09:23:07;14.43;;;8.88;;
36205;SDS011;22242;48.796;9.930;2023-02-28T09:25:35;16.23;;;8.27;;
36205;SDS011;22242;48.796;9.930;2023-02-28T09:28:02;17.30;;;8.32;;
36205;SDS011;22242;48.796;9.930;2023-02-28T09:30:31;12.70;;;7.97;;
36205;SDS011;22242;48.796;9.930;2023-02-28T09:32:58;21.40;;;9.00;;
36205;SDS011;22242;48.796;9.930;2023-02-28T09:35:25;15.25;;;8.50;;
36205;SDS011;22242;48.796;9.930;2023-02-28T09:37:53;12.27;;;8.32;;
36205;SDS011;22242;48.796;9.930;2023-02-28T09:40:20;15.18;;;9.07;;
36205;SDS011;22242;48.796;9.930;2023-02-28T09:42:50;15.15;;;8.30;;
36205;SDS011;22242;48.796;9.930;2023-02-28T09:45:22;13.65;;;7.35;;
36205;SDS011;22242;48.796;9.930;2023-02-28T09:47:53;15.00;;;8.15;;
36205;SDS011;22242;48.796;9.930;2023-02-28T09:50:28;15.02;;;8.95;;
36205;SDS011;22242;48.796;9.930;2023-02-28T09:53:01;13.43;;;8.10;;
36205;SDS011;22242;48.796;9.930;2023-02-28T09:55:30;11.98;;;7.55;;
36205;SDS011;22242;48.796;9.930;2023-02-28T09:58:03;17.52;;;9.25;;
36205;SDS011;22242;48.796;9.930;2023-02-28T10:00:32;12.38;;;7.80;;
36205;SDS011;22242;48.796;9.930;2023-02-28T10:03:10;11.82;;;7.57;;
36205;SDS011;22242;48.796;9.930;2023-02-28T10:05:53;10.57;;;7.10;;
36205;SDS011;22242;48.796;9.930;2023-02-28T10:08:26;11.27;;;6.85;;
36205;SDS011;22242;48.796;9.930;2023-02-28T10:10:57;10.98;;;7.53;;
36205;SDS011;22242;48.796;9.930;2023-02-28T10:13:31;9.70;;;7.28;;
36205;SDS011;22242;48.796;9.930;2023-02-28T10:16:02;12.43;;;8.25;;
36205;SDS011;22242;48.796;9.930;2023-02-28T10:18:37;13.00;;;8.27;;
36205;SDS011;22242;48.796;9.930;2023-02-28T10:21:13;15.43;;;8.13;;
36205;SDS011;22242;48.796;9.930;2023-02-28T10:23:46;12.73;;;8.27;;
36205;SDS011;22242;48.796;9.930;2023-02-28T10:26:16;15.70;;;8.70;;
36205;SDS011;22242;48.796;9.930;2023-02-28T10:28:44;13.60;;;8.35;;
36205;SDS011;22242;48.796;9.930;2023-02-28T10:31:11;14.90;;;9.50;;
36205;SDS011;22242;48.796;9.930;2023-02-28T10:33:44;14.52;;;8.82;;
36205;SDS011;22242;48.796;9.930;2023-02-28T10:36:12;11.02;;;8.40;;
36205;SDS011;22242;48.796;9.930;2023-02-28T10:38:42;20.08;;;9.75;;
36205;SDS011;22242;48.796;9.930;2023-02-28T10:41:10;18.55;;;8.60;;
36205;SDS011;22242;48.796;9.930;2023-02-28T10:43:40;11.50;;;7.95;;
36205;SDS011;22242;48.796;9.930;2023-02-28T10:46:12;13.60;;;8.88;;
36205;SDS011;22242;48.796;9.930;2023-02-28T10:48:59;13.02;;;8.27;;
36205;SDS011;22242;48.796;9.930;2023-02-28T10:51:36;16.08;;;8.80;;
36205;SDS011;22242;48.796;9.930;2023-02-28T10:54:04;14.38;;;9.23;;
36205;SDS011;22242;48.796;9.930;2023-02-28T10:56:32;14.90;;;8.57;;
36205;SDS011;22242;48.796;9.930;2023-02-28T10:59:00;12.95;;;7.80;;
36205;SDS011;22242;48.796;9.930;2023-02-28T11:01:35;12.23;;;7.13;;
36205;SDS011;22242;48.796;9.930;2023-02-28T11:04:17;13.90;;;7.70;;
36205;SDS011;22242;48.796;9.930;2023-02-28T11:06:46;12.18;;;7.78;;
36205;SDS011;22242;48.796;9.930;2023-02-28T11:09:23;11.95;;;7.88;;
36205;SDS011;22242;48.796;9.930;2023-02-28T11:11:55;14.30;;;8.25;;
36205;SDS011;22242;48.796;9.930;2023-02-28T11:14:24;10.48;;;7.15;;
36205;SDS011;22242;48.796;9.930;2023-02-28T11:16:52;10.38;;;7.25;;
36205;SDS011;22242;48.796;9.930;2023-02-28T11:19:24;11.07;;;6.80;;
36205;SDS011;22242;48.796;9.930;2023-02-28T11:21:55;14.43;;;8.60;;
36205;SDS011;22242;48.796;9.930;2023-02-28T11:24:27;11.02;;;6.60;;
36205;SDS011;22242;48.796;9.930;2023-02-28T11:26:56;10.82;;;6.97;;
36205;SDS011;22242;48.796;9.930;2023-02-28T11:29:24;11.85;;;7.90;;
36205;SDS011;22242;48.796;9.930;2023-02-28T11:32:03;9.60;;;7.18;;
36205;SDS011;22242;48.796;9.930;2023-02-28T11:34:38;9.93;;;6.65;;
36205;SDS011;22242;48.796;9.930;2023-02-28T11:37:09;12.30;;;7.10;;
36205;SDS011;22242;48.796;9.930;2023-02-28T11:39:38;10.25;;;6.63;;
36205;SDS011;22242;48.796;9.930;2023-02-28T11:42:16;8.98;;;6.75;;
36205;SDS011;22242;48.796;9.930;2023-02-28T11:45:02;12.43;;;7.65;;
36205;SDS011;22242;48.796;9.930;2023-02-28T11:47:38;14.13;;;8.27;;
36205;SDS011;22242;48.796;9.930;2023-02-28T11:50:16;10.02;;;7.00;;
36205;SDS011;22242;48.796;9.930;2023-02-28T11:53:05;10.07;;;7.18;;
36205;SDS011;22242;48.796;9.930;2023-02-28T11:55:41;12.35;;;8.48;;
36205;SDS011;22242;48.796;9.930;2023-02-28T11:58:17;12.43;;;7.95;;
36205;SDS011;22242;48.796;9.930;2023-02-28T12:01:04;14.73;;;8.85;;
36205;SDS011;22242;48.796;9.930;2023-02-28T12:03:44;12.35;;;7.95;;
36205;SDS011;22242;48.796;9.930;2023-02-28T12:06:20;11.02;;;7.28;;
36205;SDS011;22242;48.796;9.930;2023-02-28T12:08:56;12.30;;;7.80;;
36205;SDS011;22242;48.796;9.930;2023-02-28T12:11:38;12.07;;;8.38;;
36205;SDS011;22242;48.796;9.930;2023-02-28T12:17:14;11.88;;;7.97;;
36205;SDS011;22242;48.796;9.930;2023-02-28T12:19:48;11.43;;;8.25;;
36205;SDS011;22242;48.796;9.930;2023-02-28T12:22:29;14.32;;;8.32;;
36205;SDS011;22242;48.796;9.930;2023-02-28T12:27:49;10.68;;;7.85;;
36205;SDS011;22242;48.796;9.930;2023-02-28T12:30:19;10.32;;;7.38;;
36205;SDS011;22242;48.796;9.930;2023-02-28T12:32:51;13.32;;;8.15;;
36205;SDS011;22242;48.796;9.930;2023-02-28T12:35:23;10.82;;;7.63;;
36205;SDS011;22242;48.796;9.930;2023-02-28T12:37:58;14.20;;;7.50;;
36205;SDS011;22242;48.796;9.930;2023-02-28T12:40:32;12.68;;;7.70;;
36205;SDS011;22242;48.796;9.930;2023-02-28T12:43:08;20.45;;;10.18;;
36205;SDS011;22242;48.796;9.930;2023-02-28T12:45:39;13.02;;;7.72;;
36205;SDS011;22242;48.796;9.930;2023-02-28T12:48:10;12.98;;;8.35;;
36205;SDS011;22242;48.796;9.930;2023-02-28T12:50:41;10.82;;;7.70;;
36205;SDS011;22242;48.796;9.930;2023-02-28T12:53:12;11.80;;;7.50;;
36205;SDS011;22242;48.796;9.930;2023-02-28T12:55:45;12.95;;;7.68;;
36205;SDS011;22242;48.796;9.930;2023-02-28T12:58:19;11.90;;;7.47;;
36205;SDS011;22242;48.796;9.930;2023-02-28T13:00:58;9.48;;;6.78;;
36205;SDS011;22242;48.796;9.930;2023-02-28T13:04:04;11.82;;;7.63;;
36205;SDS011;22242;48.796;9.930;2023-02-28T13:07:03;14.27;;;8.43;;
36205;SDS011;22242;48.796;9.930;2023-02-28T13:09:52;13.50;;;8.02;;
36205;SDS011;22242;48.796;9.930;2023-02-28T13:12:21;11.70;;;6.93;;
36205;SDS011;22242;48.796;9.930;2023-02-28T13:14:49;13.90;;;7.88;;
36205;SDS011;22242;48.796;9.930;2023-02-28T13:17:18;11.07;;;7.32;;
36205;SDS011;22242;48.796;9.930;2023-02-28T13:19:55;13.05;;;7.45;;
36205;SDS011;22242;48.796;9.930;2023-02-28T13:22:38;10.65;;;7.28;;
36205;SDS011;22242;48.796;9.930;2023-02-28T13:28:13;10.90;;;7.78;;
36205;SDS011;22242;48.796;9.930;2023-02-28T13:34:39;10.23;;;6.93;;
36205;SDS011;22242;48.796;9.930;2023-02-28T13:40:27;16.00;;;7.72;;
36205;SDS011;22242;48.796;9.930;2023-02-28T13:43:02;12.10;;;7.72;;
36205;SDS011;22242;48.796;9.930;2023-02-28T13:45:31;13.32;;;7.82;;
36205;SDS011;22242;48.796;9.930;2023-02-28T13:48:03;14.15;;;8.57;;
36205;SDS011;22242;48.796;9.930;2023-02-28T13:50:41;13.95;;;8.75;;
36205;SDS011;22242;48.796;9.930;2023-02-28T13:53:23;14.38;;;8.65;;
36205;SDS011;22242;48.796;9.930;2023-02-28T13:56:01;12.05;;;7.70;;
36205;SDS011;22242;48.796;9.930;2023-02-28T13:58:37;13.82;;;8.13;;
36205;SDS011;22242;48.796;9.930;2023-02-28T14:01:21;14.35;;;9.27;;
36205;SDS011;22242;48.796;9.930;2023-02-28T14:04:00;15.27;;;9.27;;
36205;SDS011;22242;48.796;9.930;2023-02-28T14:06:40;16.08;;;9.45;;
36205;SDS011;22242;48.796;9.930;2023-02-28T14:09:19;12.07;;;8.52;;
36205;SDS011;22242;48.796;9.930;2023-02-28T14:11:50;14.00;;;9.25;;
36205;SDS011;22242;48.796;9.930;2023-02-28T14:17:26;14.20;;;8.90;;
36205;SDS011;22242;48.796;9.930;2023-02-28T14:19:57;15.85;;;8.75;;
36205;SDS011;22242;48.796;9.930;2023-02-28T14:25:16;16.35;;;9.63;;
36205;SDS011;22242;48.796;9.930;2023-02-28T14:27:48;15.18;;;8.95;;
36205;SDS011;22242;48.796;9.930;2023-02-28T14:30:29;11.98;;;8.40;;
36205;SDS011;22242;48.796;9.930;2023-02-28T14:33:31;14.95;;;8.63;;
36205;SDS011;22242;48.796;9.930;2023-02-28T14:36:10;14.27;;;8.93;;
36205;SDS011;22242;48.796;9.930;2023-02-28T14:38:43;13.68;;;8.55;;
36205;SDS011;22242;48.796;9.930;2023-02-28T14:41:19;14.93;;;9.38;;
36205;SDS011;22242;48.796;9.930;2023-02-28T14:43:52;17.88;;;9.30;;
36205;SDS011;22242;48.796;9.930;2023-02-28T14:46:22;13.73;;;8.85;;
36205;SDS011;22242;48.796;9.930;2023-02-28T14:48:54;14.48;;;8.65;;
36205;SDS011;22242;48.796;9.930;2023-02-28T14:51:22;14.85;;;8.70;;
36205;SDS011;22242;48.796;9.930;2023-02-28T14:53:51;12.88;;;8.50;;
36205;SDS011;22242;48.796;9.930;2023-02-28T14:56:26;15.95;;;8.63;;
36205;SDS011;22242;48.796;9.930;2023-02-28T14:58:56;14.50;;;8.90;;
36205;SDS011;22242;48.796;9.930;2023-02-28T15:01:24;13.88;;;8.60;;
36205;SDS011;22242;48.796;9.930;2023-02-28T15:04:00;18.48;;;10.75;;
36205;SDS011;22242;48.796;9.930;2023-02-28T15:06:29;16.67;;;8.80;;
36205;SDS011;22242;48.796;9.930;2023-02-28T15:09:07;13.88;;;8.82;;
36205;SDS011;22242;48.796;9.930;2023-02-28T15:11:40;14.50;;;9.00;;
36205;SDS011;22242;48.796;9.930;2023-02-28T15:14:13;15.75;;;8.68;;
36205;SDS011;22242;48.796;9.930;2023-02-28T15:16:43;13.95;;;8.93;;
36205;SDS011;22242;48.796;9.930;2023-02-28T15:19:14;14.75;;;8.80;;
36205;SDS011;22242;48.796;9.930;2023-02-28T15:21:48;17.02;;;9.45;;
36205;SDS011;22242;48.796;9.930;2023-02-28T15:24:18;13.27;;;8.50;;
36205;SDS011;22242;48.796;9.930;2023-02-28T15:26:51;13.80;;;9.27;;
36205;SDS011;22242;48.796;9.930;2023-02-28T15:29:23;16.02;;;9.18;;
36205;SDS011;22242;48.796;9.930;2023-02-28T15:31:55;15.60;;;8.80;;
36205;SDS011;22242;48.796;9.930;2023-02-28T15:34:28;17.50;;;9.18;;